sensor_id;sensor_type;location;lat;lon;timestamp;pressure;altitude;pressure_sealevel;temperature;humidity
36788;BME280;22738;45.560;9.434;2023-02-22T00:02:22;100201.75;;;11.15;100.00
36788;BME280;22738;45.560;9.434;2023-02-22T00:09:08;100215.19;;;11.07;100.00
36788;BME280;22738;45.560;9.434;2023-02-22T00:15:50;100202.59;;;11.01;100.00
36788;BME280;22738;45.560;9.434;2023-02-22T00:22:31;100193.13;;;11.00;100.00
36788;BME280;22738;45.560;9.434;2023-02-22T00:29:12;100209.06;;;10.94;100.00
36788;BME280;22738;45.560;9.434;2023-02-22T00:35:53;100209.78;;;10.82;100.00
36788;BME280;22738;45.560;9.434;2023-02-22T00:42:35;100199.94;;;10.73;100.00
36788;BME280;22738;45.560;9.434;2023-02-22T00:49:16;100188.19;;;10.82;100.00
36788;BME280;22738;45.560;9.434;2023-02-22T00:55:57;100197.38;;;10.87;100.00
36788;BME280;22738;45.560;9.434;2023-02-22T01:02:39;100190.84;;;10.66;100.00
36788;BME280;22738;45.560;9.434;2023-02-22T01:09:20;100194.94;;;10.70;100.00
36788;BME280;22738;45.560;9.434;2023-02-22T01:16:02;100199.72;;;10.62;100.00
36788;BME280;22738;45.560;9.434;2023-02-22T01:22:46;100196.19;;;10.49;100.00
36788;BME280;22738;45.560;9.434;2023-02-22T01:29:27;100186.84;;;10.46;100.00
36788;BME280;22738;45.560;9.434;2023-02-22T01:36:08;100187.84;;;10.44;100.00
36788;BME280;22738;45.560;9.434;2023-02-22T01:42:56;100179.28;;;10.28;100.00
36788;BME280;22738;45.560;9.434;2023-02-22T01:49:41;100171.13;;;10.34;100.00
36788;BME280;22738;45.560;9.434;2023-02-22T01:56:25;100168.81;;;10.29;100.00
36788;BME280;22738;45.560;9.434;2023-02-22T02:03:12;100173.81;;;10.32;100.00
36788;BME280;22738;45.560;9.434;2023-02-22T02:10:05;100161.50;;;10.22;100.00
36788;BME280;22738;45.560;9.434;2023-02-22T02:16:49;100162.31;;;10.22;100.00
36788;BME280;22738;45.560;9.434;2023-02-22T02:38:08;100144.44;;;10.18;100.00
36788;BME280;22738;45.560;9.434;2023-02-22T02:44:59;100140.78;;;10.22;100.00
36788;BME280;22738;45.560;9.434;2023-02-22T02:51:48;100142.69;;;10.18;100.00
36788;BME280;22738;45.560;9.434;2023-02-22T02:58:30;100124.06;;;10.12;100.00
36788;BME280;22738;45.560;9.434;2023-02-22T03:25:47;100121.91;;;10.20;100.00
36788;BME280;22738;45.560;9.434;2023-02-22T03:32:35;100119.38;;;10.18;100.00
36788;BME280;22738;45.560;9.434;2023-02-22T03:39:18;100116.72;;;10.20;100.00
36788;BME280;22738;45.560;9.434;2023-02-22T03:46:05;100115.41;;;10.13;100.00
36788;BME280;22738;45.560;9.434;2023-02-22T03:52:48;100127.09;;;10.20;100.00
36788;BME280;22738;45.560;9.434;2023-02-22T03:59:37;100127.88;;;10.20;100.00
36788;BME280;22738;45.560;9.434;2023-02-22T04:06:20;100122.63;;;10.22;100.00
36788;BME280;22738;45.560;9.434;2023-02-22T04:13:02;100120.69;;;10.25;100.00
36788;BME280;22738;45.560;9.434;2023-02-22T04:19:44;100113.03;;;10.24;100.00
36788;BME280;22738;45.560;9.434;2023-02-22T04:26:29;100115.69;;;10.22;100.00
36788;BME280;22738;45.560;9.434;2023-02-22T04:33:14;100110.75;;;10.18;100.00
36788;BME280;22738;45.560;9.434;2023-02-22T04:39:56;100116.22;;;10.13;100.00
36788;BME280;22738;45.560;9.434;2023-02-22T04:46:37;100114.47;;;10.14;100.00
36788;BME280;22738;45.560;9.434;2023-02-22T04:53:18;100120.66;;;10.11;100.00
36788;BME280;22738;45.560;9.434;2023-02-22T04:59:59;100117.22;;;10.11;100.00
36788;BME280;22738;45.560;9.434;2023-02-22T05:06:41;100112.03;;;10.11;100.00
36788;BME280;22738;45.560;9.434;2023-02-22T05:13:22;100118.06;;;10.11;100.00
36788;BME280;22738;45.560;9.434;2023-02-22T05:20:03;100109.84;;;10.19;100.00
36788;BME280;22738;45.560;9.434;2023-02-22T05:26:45;100114.13;;;10.20;100.00
36788;BME280;22738;45.560;9.434;2023-02-22T05:33:27;100113.56;;;10.15;100.00
36788;BME280;22738;45.560;9.434;2023-02-22T05:40:09;100114.69;;;10.09;100.00
36788;BME280;22738;45.560;9.434;2023-02-22T05:46:50;100112.56;;;10.01;100.00
36788;BME280;22738;45.560;9.434;2023-02-22T05:53:31;100111.25;;;10.08;100.00
36788;BME280;22738;45.560;9.434;2023-02-22T06:00:18;100116.53;;;10.07;100.00
36788;BME280;22738;45.560;9.434;2023-02-22T06:07:00;100115.69;;;10.06;100.00
36788;BME280;22738;45.560;9.434;2023-02-22T06:13:40;100116.63;;;10.05;100.00
36788;BME280;22738;45.560;9.434;2023-02-22T06:20:23;100125.16;;;10.07;100.00
36788;BME280;22738;45.560;9.434;2023-02-22T06:27:05;100118.28;;;10.06;100.00
36788;BME280;22738;45.560;9.434;2023-02-22T06:33:46;100125.31;;;10.04;100.00
36788;BME280;22738;45.560;9.434;2023-02-22T06:40:28;100123.16;;;10.13;100.00
36788;BME280;22738;45.560;9.434;2023-02-22T06:47:09;100132.44;;;10.17;100.00
36788;BME280;22738;45.560;9.434;2023-02-22T06:53:50;100144.09;;;10.24;100.00
36788;BME280;22738;45.560;9.434;2023-02-22T07:00:31;100130.22;;;10.25;100.00
36788;BME280;22738;45.560;9.434;2023-02-22T07:07:12;100143.09;;;10.26;100.00
36788;BME280;22738;45.560;9.434;2023-02-22T07:13:53;100144.91;;;10.40;100.00
36788;BME280;22738;45.560;9.434;2023-02-22T07:20:35;100140.63;;;10.39;100.00
36788;BME280;22738;45.560;9.434;2023-02-22T07:27:16;100144.16;;;10.52;100.00
36788;BME280;22738;45.560;9.434;2023-02-22T07:33:57;100144.47;;;10.61;100.00
36788;BME280;22738;45.560;9.434;2023-02-22T07:40:40;100144.22;;;10.94;100.00
36788;BME280;22738;45.560;9.434;2023-02-22T07:47:21;100143.84;;;11.14;100.00
36788;BME280;22738;45.560;9.434;2023-02-22T07:54:02;100133.28;;;11.17;100.00
36788;BME280;22738;45.560;9.434;2023-02-22T08:00:44;100135.31;;;10.98;100.00
36788;BME280;22738;45.560;9.434;2023-02-22T08:07:27;100137.34;;;11.35;100.00
36788;BME280;22738;45.560;9.434;2023-02-22T08:14:08;100129.50;;;11.49;100.00
36788;BME280;22738;45.560;9.434;2023-02-22T08:20:50;100131.34;;;11.76;100.00
36788;BME280;22738;45.560;9.434;2023-02-22T08:27:35;100132.47;;;11.72;100.00
36788;BME280;22738;45.560;9.434;2023-02-22T08:34:16;100123.69;;;11.87;100.00
36788;BME280;22738;45.560;9.434;2023-02-22T08:40:57;100127.66;;;11.92;100.00
36788;BME280;22738;45.560;9.434;2023-02-22T08:47:39;100130.69;;;11.99;100.00
36788;BME280;22738;45.560;9.434;2023-02-22T08:54:20;100126.97;;;12.03;100.00
36788;BME280;22738;45.560;9.434;2023-02-22T09:01:02;100124.84;;;12.35;100.00
36788;BME280;22738;45.560;9.434;2023-02-22T09:07:47;100119.06;;;12.69;100.00
36788;BME280;22738;45.560;9.434;2023-02-22T09:14:28;100111.44;;;13.04;100.00
36788;BME280;22738;45.560;9.434;2023-02-22T09:21:10;100108.72;;;13.54;100.00
36788;BME280;22738;45.560;9.434;2023-02-22T09:27:52;100097.81;;;13.73;100.00
36788;BME280;22738;45.560;9.434;2023-02-22T09:34:33;100105.69;;;13.60;100.00
36788;BME280;22738;45.560;9.434;2023-02-22T09:41:27;100093.53;;;13.95;100.00
36788;BME280;22738;45.560;9.434;2023-02-22T09:48:13;100103.06;;;14.07;100.00
36788;BME280;22738;45.560;9.434;2023-02-22T09:55:08;100098.53;;;13.98;100.00
36788;BME280;22738;45.560;9.434;2023-02-22T10:01:56;100094.91;;;14.47;100.00
36788;BME280;22738;45.560;9.434;2023-02-22T10:08:39;100087.13;;;14.80;100.00
36788;BME280;22738;45.560;9.434;2023-02-22T10:15:35;100079.47;;;15.32;100.00
36788;BME280;22738;45.560;9.434;2023-02-22T10:36:03;100062.31;;;14.96;100.00
36788;BME280;22738;45.560;9.434;2023-02-22T10:42:45;100060.22;;;15.33;100.00
36788;BME280;22738;45.560;9.434;2023-02-22T10:49:32;100059.72;;;15.93;100.00
36788;BME280;22738;45.560;9.434;2023-02-22T10:56:20;100048.47;;;15.82;100.00
36788;BME280;22738;45.560;9.434;2023-02-22T11:03:26;100039.88;;;16.32;100.00
36788;BME280;22738;45.560;9.434;2023-02-22T11:10:07;100034.47;;;17.15;100.00
36788;BME280;22738;45.560;9.434;2023-02-22T11:16:52;100018.56;;;16.57;100.00
36788;BME280;22738;45.560;9.434;2023-02-22T11:23:40;100010.78;;;17.45;100.00
36788;BME280;22738;45.560;9.434;2023-02-22T11:30:31;100002.34;;;17.32;100.00
36788;BME280;22738;45.560;9.434;2023-02-22T11:37:33;99988.19;;;16.75;100.00
36788;BME280;22738;45.560;9.434;2023-02-22T11:44:29;99991.66;;;16.25;100.00
36788;BME280;22738;45.560;9.434;2023-02-22T11:51:44;99982.94;;;16.45;100.00
36788;BME280;22738;45.560;9.434;2023-02-22T11:58:34;99960.19;;;16.66;100.00
36788;BME280;22738;45.560;9.434;2023-02-22T12:25:36;99940.81;;;16.48;100.00
36788;BME280;22738;45.560;9.434;2023-02-22T12:39:24;99933.25;;;16.15;100.00
36788;BME280;22738;45.560;9.434;2023-02-22T12:53:08;99913.97;;;16.16;100.00
36788;BME280;22738;45.560;9.434;2023-02-22T12:59:58;99910.22;;;16.39;100.00
36788;BME280;22738;45.560;9.434;2023-02-22T13:20:36;99895.03;;;16.73;100.00
36788;BME280;22738;45.560;9.434;2023-02-22T13:34:37;99868.38;;;16.09;100.00
36788;BME280;22738;45.560;9.434;2023-02-22T13:41:48;99862.81;;;15.93;100.00
36788;BME280;22738;45.560;9.434;2023-02-22T13:55:30;99869.56;;;15.33;100.00
36788;BME280;22738;45.560;9.434;2023-02-22T14:02:55;99860.22;;;15.10;100.00
36788;BME280;22738;45.560;9.434;2023-02-22T14:09:53;99863.56;;;15.01;100.00
36788;BME280;22738;45.560;9.434;2023-02-22T14:16:37;99856.84;;;15.19;100.00
36788;BME280;22738;45.560;9.434;2023-02-22T14:23:33;99855.03;;;15.51;100.00
36788;BME280;22738;45.560;9.434;2023-02-22T14:30:28;99846.41;;;15.91;100.00
36788;BME280;22738;45.560;9.434;2023-02-22T14:37:31;99848.00;;;16.03;100.00
36788;BME280;22738;45.560;9.434;2023-02-22T14:44:16;99846.16;;;15.94;100.00
36788;BME280;22738;45.560;9.434;2023-02-22T14:51:03;99847.81;;;15.95;100.00
36788;BME280;22738;45.560;9.434;2023-02-22T15:04:36;99843.81;;;15.60;100.00
36788;BME280;22738;45.560;9.434;2023-02-22T15:11:21;99829.06;;;15.39;100.00
36788;BME280;22738;45.560;9.434;2023-02-22T15:18:10;99821.31;;;15.28;100.00
36788;BME280;22738;45.560;9.434;2023-02-22T15:25:00;99831.28;;;15.02;100.00
36788;BME280;22738;45.560;9.434;2023-02-22T15:31:43;99828.47;;;14.94;100.00
36788;BME280;22738;45.560;9.434;2023-02-22T15:38:28;99833.28;;;14.78;100.00
36788;BME280;22738;45.560;9.434;2023-02-22T15:45:18;99825.16;;;14.60;100.00
36788;BME280;22738;45.560;9.434;2023-02-22T15:52:22;99824.75;;;14.44;100.00
36788;BME280;22738;45.560;9.434;2023-02-22T15:59:11;99828.88;;;14.24;100.00
36788;BME280;22738;45.560;9.434;2023-02-22T16:05:55;99834.38;;;14.10;100.00
36788;BME280;22738;45.560;9.434;2023-02-22T16:12:37;99837.22;;;13.74;100.00
36788;BME280;22738;45.560;9.434;2023-02-22T16:19:39;99839.56;;;13.55;100.00
36788;BME280;22738;45.560;9.434;2023-02-22T16:26:27;99832.16;;;13.38;100.00
36788;BME280;22738;45.560;9.434;2023-02-22T16:33:09;99832.84;;;13.18;100.00
36788;BME280;22738;45.560;9.434;2023-02-22T16:39:57;99823.41;;;13.04;100.00
36788;BME280;22738;45.560;9.434;2023-02-22T16:46:39;99833.28;;;12.88;100.00
36788;BME280;22738;45.560;9.434;2023-02-22T16:53:23;99833.75;;;12.82;100.00
36788;BME280;22738;45.560;9.434;2023-02-22T17:00:10;99826.03;;;12.69;100.00
36788;BME280;22738;45.560;9.434;2023-02-22T17:06:52;99839.44;;;12.63;100.00
36788;BME280;22738;45.560;9.434;2023-02-22T17:13:34;99844.88;;;12.60;100.00
36788;BME280;22738;45.560;9.434;2023-02-22T17:20:15;99848.16;;;12.51;100.00
36788;BME280;22738;45.560;9.434;2023-02-22T17:27:04;99856.34;;;12.45;100.00
36788;BME280;22738;45.560;9.434;2023-02-22T17:33:45;99853.03;;;12.43;100.00
36788;BME280;22738;45.560;9.434;2023-02-22T17:40:27;99858.69;;;12.37;100.00
36788;BME280;22738;45.560;9.434;2023-02-22T17:47:08;99865.44;;;12.40;100.00
36788;BME280;22738;45.560;9.434;2023-02-22T17:53:50;99867.41;;;12.36;100.00
36788;BME280;22738;45.560;9.434;2023-02-22T18:00:35;99857.44;;;12.30;100.00
36788;BME280;22738;45.560;9.434;2023-02-22T18:07:16;99866.94;;;12.18;100.00
36788;BME280;22738;45.560;9.434;2023-02-22T18:13:59;99871.28;;;12.18;100.00
36788;BME280;22738;45.560;9.434;2023-02-22T18:20:41;99864.75;;;12.25;100.00
36788;BME280;22738;45.560;9.434;2023-02-22T18:27:23;99859.94;;;12.32;100.00
36788;BME280;22738;45.560;9.434;2023-02-22T18:34:05;99855.56;;;12.32;100.00
36788;BME280;22738;45.560;9.434;2023-02-22T18:41:02;99856.03;;;12.26;100.00
36788;BME280;22738;45.560;9.434;2023-02-22T18:47:43;99848.56;;;12.09;100.00
36788;BME280;22738;45.560;9.434;2023-02-22T18:54:26;99844.72;;;12.02;100.00
36788;BME280;22738;45.560;9.434;2023-02-22T19:01:13;99839.03;;;11.84;100.00
36788;BME280;22738;45.560;9.434;2023-02-22T19:07:55;99852.25;;;11.69;100.00
36788;BME280;22738;45.560;9.434;2023-02-22T19:14:37;99851.16;;;11.59;100.00
36788;BME280;22738;45.560;9.434;2023-02-22T19:21:18;99847.94;;;11.55;100.00
36788;BME280;22738;45.560;9.434;2023-02-22T19:27:59;99846.91;;;11.58;100.00
36788;BME280;22738;45.560;9.434;2023-02-22T19:34:40;99844.75;;;11.77;100.00
36788;BME280;22738;45.560;9.434;2023-02-22T19:41:23;99848.59;;;11.96;100.00
36788;BME280;22738;45.560;9.434;2023-02-22T19:48:04;99849.50;;;11.95;100.00
36788;BME280;22738;45.560;9.434;2023-02-22T19:54:45;99855.75;;;11.93;100.00
36788;BME280;22738;45.560;9.434;2023-02-22T20:01:31;99848.59;;;11.84;100.00
36788;BME280;22738;45.560;9.434;2023-02-22T20:08:12;99852.97;;;11.71;100.00
36788;BME280;22738;45.560;9.434;2023-02-22T20:14:53;99857.41;;;11.56;100.00
36788;BME280;22738;45.560;9.434;2023-02-22T20:21:34;99843.97;;;11.24;100.00
36788;BME280;22738;45.560;9.434;2023-02-22T20:28:16;99850.84;;;11.38;100.00
36788;BME280;22738;45.560;9.434;2023-02-22T20:34:57;99849.06;;;11.38;100.00
36788;BME280;22738;45.560;9.434;2023-02-22T20:41:41;99869.09;;;11.36;100.00
36788;BME280;22738;45.560;9.434;2023-02-22T20:48:22;99867.47;;;11.35;100.00
36788;BME280;22738;45.560;9.434;2023-02-22T20:55:05;99865.38;;;11.40;100.00
36788;BME280;22738;45.560;9.434;2023-02-22T21:01:51;99863.72;;;11.39;100.00
36788;BME280;22738;45.560;9.434;2023-02-22T21:08:32;99865.59;;;11.37;100.00
36788;BME280;22738;45.560;9.434;2023-02-22T21:15:14;99874.06;;;11.27;100.00
36788;BME280;22738;45.560;9.434;2023-02-22T21:21:56;99871.59;;;11.25;100.00
36788;BME280;22738;45.560;9.434;2023-02-22T21:28:37;99862.72;;;11.15;100.00
36788;BME280;22738;45.560;9.434;2023-02-22T21:35:20;99858.19;;;11.19;100.00
36788;BME280;22738;45.560;9.434;2023-02-22T21:42:04;99871.31;;;11.03;100.00
36788;BME280;22738;45.560;9.434;2023-02-22T21:48:47;99861.78;;;11.04;100.00
36788;BME280;22738;45.560;9.434;2023-02-22T21:55:28;99862.59;;;11.04;100.00
36788;BME280;22738;45.560;9.434;2023-02-22T22:02:09;99857.84;;;11.11;100.00
36788;BME280;22738;45.560;9.434;2023-02-22T22:08:50;99851.50;;;11.02;100.00
36788;BME280;22738;45.560;9.434;2023-02-22T22:15:33;99852.94;;;10.94;100.00
36788;BME280;22738;45.560;9.434;2023-02-22T22:22:16;99847.50;;;10.84;100.00
36788;BME280;22738;45.560;9.434;2023-02-22T22:28:59;99842.88;;;10.89;100.00
36788;BME280;22738;45.560;9.434;2023-02-22T22:35:40;99845.16;;;10.94;100.00
36788;BME280;22738;45.560;9.434;2023-02-22T22:42:22;99838.34;;;11.05;100.00
36788;BME280;22738;45.560;9.434;2023-02-22T22:49:11;99830.44;;;10.94;100.00
36788;BME280;22738;45.560;9.434;2023-02-22T22:55:54;99829.75;;;10.78;100.00
36788;BME280;22738;45.560;9.434;2023-02-22T23:02:35;99828.69;;;10.68;100.00
36788;BME280;22738;45.560;9.434;2023-02-22T23:09:28;99833.94;;;10.81;100.00
36788;BME280;22738;45.560;9.434;2023-02-22T23:16:11;99821.81;;;10.94;100.00
36788;BME280;22738;45.560;9.434;2023-02-22T23:22:53;99829.84;;;11.03;100.00
36788;BME280;22738;45.560;9.434;2023-02-22T23:29:38;99826.69;;;10.86;100.00
36788;BME280;22738;45.560;9.434;2023-02-22T23:36:19;99834.53;;;10.84;100.00
36788;BME280;22738;45.560;9.434;2023-02-22T23:43:00;99826.88;;;10.83;100.00
36788;BME280;22738;45.560;9.434;2023-02-22T23:49:43;99819.25;;;10.67;100.00
36788;BME280;22738;45.560;9.434;2023-02-22T23:56:30;99826.44;;;10.76;100.00
